SCKC weather

Roberto Chavéz Airport
Cunco, Araucanía Region, Chile

Public forecast

Using degrees Celsius for public forecast. Weather courtesy of forecast.io.

METAR (pilot weather report)

Closest report is La Araucanía Airport, 20.4 nm (37.8 km) W. Retrieved 2019/05/22 18:00 UTC (8 minutes ago):

SCQP 221800Z 29004KT 210V340 9999 FEW006 08/08 Q1022

TAF (pilot weather forecast)

Closest forecast is La Araucanía Airport, 20.4 nm (37.8 km) W. Retrieved 2019/05/22 18:00 UTC (8 minutes ago):

TAF SCQP 221649Z 2218/2318 17006KT CAVOK TX14/2219Z TN01/2311Z BECMG 2300/2302 VRB02KT 6000 FEW003 BECMG 2302/2304 2000 BR OVC003 BECMG 2315/2317 17006KT 9999 NSW SCT020